sensor_id;sensor_type;location;lat;lon;timestamp;pressure;altitude;pressure_sealevel;temperature;humidity
34506;BME280;20748;42.632;23.198;2023-07-08T00:05:02;92399.59;;;18.49;92.38
34506;BME280;20748;42.632;23.198;2023-07-08T00:07:35;92397.72;;;18.50;93.10
34506;BME280;20748;42.632;23.198;2023-07-08T00:10:13;92399.47;;;18.30;93.15
34506;BME280;20748;42.632;23.198;2023-07-08T00:12:48;92409.78;;;18.35;92.33
34506;BME280;20748;42.632;23.198;2023-07-08T00:15:25;92404.75;;;18.30;92.33
34506;BME280;20748;42.632;23.198;2023-07-08T00:17:58;92405.03;;;18.41;92.32
34506;BME280;20748;42.632;23.198;2023-07-08T00:20:38;92383.56;;;18.42;92.95
34506;BME280;20748;42.632;23.198;2023-07-08T00:28:31;92393.59;;;18.36;92.70
34506;BME280;20748;42.632;23.198;2023-07-08T00:31:07;92387.16;;;18.21;92.11
34506;BME280;20748;42.632;23.198;2023-07-08T00:33:40;92379.09;;;18.30;91.63
34506;BME280;20748;42.632;23.198;2023-07-08T00:36:14;92389.97;;;18.29;91.90
34506;BME280;20748;42.632;23.198;2023-07-08T00:38:47;92381.97;;;18.25;92.61
34506;BME280;20748;42.632;23.198;2023-07-08T00:41:22;92373.53;;;18.19;92.62
34506;BME280;20748;42.632;23.198;2023-07-08T00:43:59;92381.97;;;18.25;92.68
34506;BME280;20748;42.632;23.198;2023-07-08T00:53:23;92382.84;;;17.88;94.27
34506;BME280;20748;42.632;23.198;2023-07-08T00:56:00;92362.19;;;17.78;94.50
34506;BME280;20748;42.632;23.198;2023-07-08T00:58:36;92368.59;;;17.77;95.16
34506;BME280;20748;42.632;23.198;2023-07-08T01:01:10;92372.28;;;17.76;94.33
34506;BME280;20748;42.632;23.198;2023-07-08T01:03:48;92369.47;;;17.68;94.99
34506;BME280;20748;42.632;23.198;2023-07-08T01:06:24;92361.91;;;17.67;95.08
34506;BME280;20748;42.632;23.198;2023-07-08T01:09:04;92364.19;;;17.68;95.59
34506;BME280;20748;42.632;23.198;2023-07-08T01:19:28;92360.94;;;17.34;96.67
34506;BME280;20748;42.632;23.198;2023-07-08T01:22:06;92360.50;;;17.32;97.23
34506;BME280;20748;42.632;23.198;2023-07-08T01:24:41;92363.69;;;17.38;97.70
34506;BME280;20748;42.632;23.198;2023-07-08T01:27:17;92361.91;;;17.42;97.00
34506;BME280;20748;42.632;23.198;2023-07-08T01:29:50;92352.91;;;17.43;96.43
34506;BME280;20748;42.632;23.198;2023-07-08T01:32:22;92356.19;;;17.52;96.74
34506;BME280;20748;42.632;23.198;2023-07-08T01:35:00;92350.78;;;17.61;95.19
34506;BME280;20748;42.632;23.198;2023-07-08T01:40:57;92352.66;;;17.61;95.55
34506;BME280;20748;42.632;23.198;2023-07-08T01:43:30;92349.38;;;17.64;95.12
34506;BME280;20748;42.632;23.198;2023-07-08T01:46:03;92346.44;;;17.53;94.80
34506;BME280;20748;42.632;23.198;2023-07-08T01:48:38;92354.75;;;17.55;94.93
34506;BME280;20748;42.632;23.198;2023-07-08T01:51:12;92348.84;;;17.58;95.28
34506;BME280;20748;42.632;23.198;2023-07-08T01:53:45;92348.97;;;17.49;95.94
34506;BME280;20748;42.632;23.198;2023-07-08T01:56:18;92345.44;;;17.45;96.30
34506;BME280;20748;42.632;23.198;2023-07-08T02:01:33;92345.66;;;17.40;96.85
34506;BME280;20748;42.632;23.198;2023-07-08T02:04:06;92347.53;;;17.39;96.26
34506;BME280;20748;42.632;23.198;2023-07-08T02:06:38;92345.34;;;17.41;96.97
34506;BME280;20748;42.632;23.198;2023-07-08T02:09:15;92352.16;;;17.42;96.26
34506;BME280;20748;42.632;23.198;2023-07-08T02:11:47;92343.94;;;17.31;96.32
34506;BME280;20748;42.632;23.198;2023-07-08T02:14:20;92349.09;;;17.40;96.83
34506;BME280;20748;42.632;23.198;2023-07-08T02:16:53;92349.06;;;17.28;97.25
34506;BME280;20748;42.632;23.198;2023-07-08T02:26:18;92360.94;;;17.22;97.34
34506;BME280;20748;42.632;23.198;2023-07-08T02:28:50;92363.13;;;17.32;98.08
34506;BME280;20748;42.632;23.198;2023-07-08T02:31:23;92364.66;;;17.33;97.83
34506;BME280;20748;42.632;23.198;2023-07-08T02:33:56;92362.81;;;17.34;97.81
34506;BME280;20748;42.632;23.198;2023-07-08T02:36:29;92366.09;;;17.30;97.38
34506;BME280;20748;42.632;23.198;2023-07-08T02:39:01;92353.03;;;17.22;98.86
34506;BME280;20748;42.632;23.198;2023-07-08T02:41:35;92357.34;;;17.26;98.43
34506;BME280;20748;42.632;23.198;2023-07-08T02:46:57;92377.75;;;17.29;97.51
34506;BME280;20748;42.632;23.198;2023-07-08T02:49:30;92376.13;;;17.25;98.06
34506;BME280;20748;42.632;23.198;2023-07-08T02:52:03;92367.78;;;17.23;98.69
34506;BME280;20748;42.632;23.198;2023-07-08T02:54:35;92371.84;;;17.33;97.44
34506;BME280;20748;42.632;23.198;2023-07-08T02:57:08;92370.72;;;17.34;98.55
34506;BME280;20748;42.632;23.198;2023-07-08T02:59:40;92374.25;;;17.38;98.24
34506;BME280;20748;42.632;23.198;2023-07-08T03:02:14;92372.16;;;17.43;97.40
34506;BME280;20748;42.632;23.198;2023-07-08T03:08:14;92381.69;;;17.48;96.03
34506;BME280;20748;42.632;23.198;2023-07-08T03:10:47;92384.78;;;17.50;95.95
34506;BME280;20748;42.632;23.198;2023-07-08T03:13:20;92374.56;;;17.49;95.79
34506;BME280;20748;42.632;23.198;2023-07-08T03:15:52;92383.69;;;17.51;94.87
34506;BME280;20748;42.632;23.198;2023-07-08T03:18:27;92377.63;;;17.51;96.54
34506;BME280;20748;42.632;23.198;2023-07-08T03:21:00;92369.06;;;17.54;95.27
34506;BME280;20748;42.632;23.198;2023-07-08T03:23:34;92363.91;;;17.33;97.79
34506;BME280;20748;42.632;23.198;2023-07-08T03:35:06;92364.56;;;17.42;96.72
34506;BME280;20748;42.632;23.198;2023-07-08T03:37:39;92366.97;;;17.47;97.46
34506;BME280;20748;42.632;23.198;2023-07-08T03:40:12;92365.13;;;17.48;95.79
34506;BME280;20748;42.632;23.198;2023-07-08T03:42:45;92362.03;;;17.45;97.08
34506;BME280;20748;42.632;23.198;2023-07-08T03:45:18;92368.72;;;17.43;97.32
34506;BME280;20748;42.632;23.198;2023-07-08T03:47:50;92360.94;;;17.47;97.26
34506;BME280;20748;42.632;23.198;2023-07-08T03:50:26;92349.50;;;17.42;97.12
34506;BME280;20748;42.632;23.198;2023-07-08T04:01:21;92352.25;;;17.46;93.67
34506;BME280;20748;42.632;23.198;2023-07-08T04:03:57;92348.50;;;17.47;94.13
34506;BME280;20748;42.632;23.198;2023-07-08T04:06:30;92349.06;;;17.53;93.27
34506;BME280;20748;42.632;23.198;2023-07-08T04:09:03;92358.94;;;17.56;92.93
34506;BME280;20748;42.632;23.198;2023-07-08T04:11:36;92354.34;;;17.40;93.90
34506;BME280;20748;42.632;23.198;2023-07-08T04:14:09;92358.06;;;17.39;93.38
34506;BME280;20748;42.632;23.198;2023-07-08T04:16:48;92365.44;;;17.34;95.76
34506;BME280;20748;42.632;23.198;2023-07-08T04:24:43;92367.44;;;17.49;96.77
34506;BME280;20748;42.632;23.198;2023-07-08T04:27:17;92366.84;;;17.56;94.69
34506;BME280;20748;42.632;23.198;2023-07-08T04:29:49;92368.84;;;17.59;94.61
34506;BME280;20748;42.632;23.198;2023-07-08T04:32:22;92381.59;;;17.44;94.32
34506;BME280;20748;42.632;23.198;2023-07-08T04:34:56;92377.50;;;17.60;93.65
34506;BME280;20748;42.632;23.198;2023-07-08T04:37:29;92378.06;;;17.65;93.49
34506;BME280;20748;42.632;23.198;2023-07-08T04:40:03;92379.28;;;17.55;94.27
34506;BME280;20748;42.632;23.198;2023-07-08T04:47:46;92373.88;;;17.64;94.57
34506;BME280;20748;42.632;23.198;2023-07-08T04:50:24;92382.44;;;17.61;94.17
34506;BME280;20748;42.632;23.198;2023-07-08T04:52:56;92387.94;;;17.68;94.45
34506;BME280;20748;42.632;23.198;2023-07-08T04:55:29;92383.44;;;17.69;93.09
34506;BME280;20748;42.632;23.198;2023-07-08T04:58:02;92382.03;;;17.59;95.59
34506;BME280;20748;42.632;23.198;2023-07-08T05:00:34;92382.44;;;17.61;93.33
34506;BME280;20748;42.632;23.198;2023-07-08T05:03:08;92389.16;;;17.58;93.99
34506;BME280;20748;42.632;23.198;2023-07-08T05:12:34;92405.94;;;17.79;94.64
34506;BME280;20748;42.632;23.198;2023-07-08T05:15:09;92409.56;;;17.87;92.56
34506;BME280;20748;42.632;23.198;2023-07-08T05:17:42;92412.63;;;17.89;92.91
34506;BME280;20748;42.632;23.198;2023-07-08T05:20:15;92402.78;;;17.73;94.00
34506;BME280;20748;42.632;23.198;2023-07-08T05:22:48;92408.59;;;17.66;94.43
34506;BME280;20748;42.632;23.198;2023-07-08T05:25:20;92407.41;;;17.64;93.13
34506;BME280;20748;42.632;23.198;2023-07-08T05:27:53;92404.66;;;17.73;94.45
34506;BME280;20748;42.632;23.198;2023-07-08T05:33:52;92399.03;;;17.74;93.90
34506;BME280;20748;42.632;23.198;2023-07-08T05:36:25;92397.25;;;17.78;94.43
34506;BME280;20748;42.632;23.198;2023-07-08T05:38:57;92401.19;;;17.84;94.42
34506;BME280;20748;42.632;23.198;2023-07-08T05:41:30;92404.38;;;17.90;91.69
34506;BME280;20748;42.632;23.198;2023-07-08T05:44:02;92411.63;;;17.93;91.45
34506;BME280;20748;42.632;23.198;2023-07-08T05:46:35;92417.56;;;18.03;91.82
34506;BME280;20748;42.632;23.198;2023-07-08T05:49:08;92427.59;;;18.09;89.58
34506;BME280;20748;42.632;23.198;2023-07-08T05:54:23;92432.72;;;18.18;90.24
34506;BME280;20748;42.632;23.198;2023-07-08T05:56:57;92431.53;;;18.16;91.50
34506;BME280;20748;42.632;23.198;2023-07-08T05:59:30;92437.78;;;18.23;91.44
34506;BME280;20748;42.632;23.198;2023-07-08T06:02:03;92425.88;;;18.30;91.55
34506;BME280;20748;42.632;23.198;2023-07-08T06:04:36;92434.75;;;18.37;91.34
34506;BME280;20748;42.632;23.198;2023-07-08T06:07:08;92436.06;;;18.44;90.22
34506;BME280;20748;42.632;23.198;2023-07-08T06:09:41;92436.16;;;18.47;90.08
34506;BME280;20748;42.632;23.198;2023-07-08T06:15:04;92439.56;;;18.48;90.35
34506;BME280;20748;42.632;23.198;2023-07-08T06:17:37;92445.22;;;18.34;90.91
34506;BME280;20748;42.632;23.198;2023-07-08T06:20:10;92446.78;;;18.35;90.94
34506;BME280;20748;42.632;23.198;2023-07-08T06:22:43;92444.66;;;18.41;91.60
34506;BME280;20748;42.632;23.198;2023-07-08T06:25:19;92451.22;;;18.47;91.68
34506;BME280;20748;42.632;23.198;2023-07-08T06:27:51;92455.22;;;18.41;92.64
34506;BME280;20748;42.632;23.198;2023-07-08T06:30:27;92457.53;;;18.42;90.54
34506;BME280;20748;42.632;23.198;2023-07-08T06:39:36;92454.44;;;18.40;90.54
34506;BME280;20748;42.632;23.198;2023-07-08T06:42:11;92454.56;;;18.44;88.77
34506;BME280;20748;42.632;23.198;2023-07-08T06:44:50;92450.81;;;18.45;88.22
34506;BME280;20748;42.632;23.198;2023-07-08T06:47:25;92453.44;;;18.45;88.92
34506;BME280;20748;42.632;23.198;2023-07-08T06:49:57;92443.63;;;18.45;87.63
34506;BME280;20748;42.632;23.198;2023-07-08T06:52:32;92441.06;;;18.20;87.05
34506;BME280;20748;42.632;23.198;2023-07-08T06:55:09;92452.56;;;18.12;88.90
34506;BME280;20748;42.632;23.198;2023-07-08T07:03:08;92455.81;;;18.21;88.94
34506;BME280;20748;42.632;23.198;2023-07-08T07:05:42;92458.00;;;18.32;89.19
34506;BME280;20748;42.632;23.198;2023-07-08T07:08:15;92459.63;;;18.36;88.08
34506;BME280;20748;42.632;23.198;2023-07-08T07:10:47;92470.75;;;18.42;86.34
34506;BME280;20748;42.632;23.198;2023-07-08T07:13:20;92467.38;;;18.58;86.27
34506;BME280;20748;42.632;23.198;2023-07-08T07:15:52;92468.88;;;18.71;86.72
34506;BME280;20748;42.632;23.198;2023-07-08T07:18:26;92472.13;;;18.81;85.95
34506;BME280;20748;42.632;23.198;2023-07-08T07:25:24;92485.41;;;18.84;81.96
34506;BME280;20748;42.632;23.198;2023-07-08T07:27:57;92493.72;;;18.83;83.54
34506;BME280;20748;42.632;23.198;2023-07-08T07:30:30;92491.09;;;18.99;84.62
34506;BME280;20748;42.632;23.198;2023-07-08T07:33:03;92497.28;;;19.03;82.16
34506;BME280;20748;42.632;23.198;2023-07-08T07:35:35;92504.53;;;19.06;79.31
34506;BME280;20748;42.632;23.198;2023-07-08T07:38:08;92498.81;;;19.04;82.11
34506;BME280;20748;42.632;23.198;2023-07-08T07:40:41;92501.72;;;19.15;81.66
34506;BME280;20748;42.632;23.198;2023-07-08T07:47:06;92496.88;;;19.33;79.10
34506;BME280;20748;42.632;23.198;2023-07-08T07:49:39;92490.16;;;19.36;78.24
34506;BME280;20748;42.632;23.198;2023-07-08T07:52:12;92481.00;;;19.49;78.96
34506;BME280;20748;42.632;23.198;2023-07-08T07:54:45;92498.16;;;19.71;79.54
34506;BME280;20748;42.632;23.198;2023-07-08T07:57:17;92494.56;;;19.96;76.59
34506;BME280;20748;42.632;23.198;2023-07-08T07:59:50;92496.91;;;20.17;76.77
34506;BME280;20748;42.632;23.198;2023-07-08T08:02:23;92496.19;;;20.36;75.81
34506;BME280;20748;42.632;23.198;2023-07-08T08:07:45;92495.13;;;20.61;73.97
34506;BME280;20748;42.632;23.198;2023-07-08T08:10:19;92493.88;;;20.55;72.12
34506;BME280;20748;42.632;23.198;2023-07-08T08:12:52;92498.13;;;20.59;73.22
34506;BME280;20748;42.632;23.198;2023-07-08T08:15:25;92502.00;;;20.82;72.60
34506;BME280;20748;42.632;23.198;2023-07-08T08:17:58;92492.91;;;21.02;71.12
34506;BME280;20748;42.632;23.198;2023-07-08T08:20:31;92494.88;;;21.05;71.06
34506;BME280;20748;42.632;23.198;2023-07-08T08:23:05;92490.53;;;21.17;71.64
34506;BME280;20748;42.632;23.198;2023-07-08T08:30:59;92497.47;;;21.25;68.89
34506;BME280;20748;42.632;23.198;2023-07-08T08:33:33;92499.44;;;21.52;69.79
34506;BME280;20748;42.632;23.198;2023-07-08T08:36:05;92498.00;;;21.58;69.31
34506;BME280;20748;42.632;23.198;2023-07-08T08:38:38;92493.91;;;21.37;69.61
34506;BME280;20748;42.632;23.198;2023-07-08T08:41:13;92488.06;;;21.51;69.53
34506;BME280;20748;42.632;23.198;2023-07-08T08:43:48;92491.13;;;21.53;68.12
34506;BME280;20748;42.632;23.198;2023-07-08T08:46:27;92498.25;;;21.49;66.89
34506;BME280;20748;42.632;23.198;2023-07-08T08:54:21;92489.09;;;21.46;66.00
34506;BME280;20748;42.632;23.198;2023-07-08T08:56:59;92484.38;;;21.83;66.19
34506;BME280;20748;42.632;23.198;2023-07-08T08:59:44;92497.72;;;21.86;68.60
34506;BME280;20748;42.632;23.198;2023-07-08T09:02:36;92500.53;;;21.97;66.79
34506;BME280;20748;42.632;23.198;2023-07-08T09:05:12;92495.09;;;22.17;66.74
34506;BME280;20748;42.632;23.198;2023-07-08T09:08:02;92490.22;;;22.19;66.34
34506;BME280;20748;42.632;23.198;2023-07-08T09:10:44;92487.56;;;22.50;64.98
34506;BME280;20748;42.632;23.198;2023-07-08T09:18:42;92483.84;;;23.27;66.41
34506;BME280;20748;42.632;23.198;2023-07-08T09:21:20;92479.53;;;23.49;64.76
34506;BME280;20748;42.632;23.198;2023-07-08T09:23:57;92485.59;;;23.50;63.50
34506;BME280;20748;42.632;23.198;2023-07-08T09:26:33;92475.13;;;23.71;61.51
34506;BME280;20748;42.632;23.198;2023-07-08T09:29:08;92470.69;;;23.94;59.63
34506;BME280;20748;42.632;23.198;2023-07-08T09:31:41;92471.97;;;24.11;59.38
34506;BME280;20748;42.632;23.198;2023-07-08T09:34:21;92464.75;;;24.11;59.79
34506;BME280;20748;42.632;23.198;2023-07-08T09:44:46;92454.63;;;24.46;59.55
34506;BME280;20748;42.632;23.198;2023-07-08T09:47:22;92459.47;;;24.22;57.99
34506;BME280;20748;42.632;23.198;2023-07-08T09:49:55;92463.34;;;24.32;59.76
34506;BME280;20748;42.632;23.198;2023-07-08T09:52:29;92449.53;;;24.16;57.87
34506;BME280;20748;42.632;23.198;2023-07-08T09:55:02;92454.34;;;23.95;59.31
34506;BME280;20748;42.632;23.198;2023-07-08T09:57:35;92460.25;;;23.67;59.92
34506;BME280;20748;42.632;23.198;2023-07-08T10:00:12;92454.66;;;23.83;59.92
34506;BME280;20748;42.632;23.198;2023-07-08T10:05:31;92450.41;;;23.74;54.15
34506;BME280;20748;42.632;23.198;2023-07-08T10:08:11;92453.41;;;23.24;56.06
34506;BME280;20748;42.632;23.198;2023-07-08T10:10:47;92442.63;;;23.51;59.52
34506;BME280;20748;42.632;23.198;2023-07-08T10:13:34;92451.97;;;23.79;56.14
34506;BME280;20748;42.632;23.198;2023-07-08T10:16:14;92449.94;;;24.21;57.54
34506;BME280;20748;42.632;23.198;2023-07-08T10:18:48;92446.94;;;24.26;55.41
34506;BME280;20748;42.632;23.198;2023-07-08T10:21:31;92443.91;;;24.35;55.76
34506;BME280;20748;42.632;23.198;2023-07-08T10:32:06;92423.97;;;25.14;51.81
34506;BME280;20748;42.632;23.198;2023-07-08T10:34:45;92419.78;;;25.20;52.21
34506;BME280;20748;42.632;23.198;2023-07-08T10:37:25;92417.50;;;25.41;51.99
34506;BME280;20748;42.632;23.198;2023-07-08T10:40:14;92414.47;;;25.57;54.13
34506;BME280;20748;42.632;23.198;2023-07-08T10:43:02;92414.44;;;25.79;52.43
34506;BME280;20748;42.632;23.198;2023-07-08T10:45:40;92411.75;;;25.97;48.67
34506;BME280;20748;42.632;23.198;2023-07-08T10:48:29;92407.53;;;25.99;49.05
34506;BME280;20748;42.632;23.198;2023-07-08T10:56:35;92421.31;;;25.83;47.58
34506;BME280;20748;42.632;23.198;2023-07-08T10:59:27;92414.41;;;25.97;47.79
34506;BME280;20748;42.632;23.198;2023-07-08T11:02:29;92407.91;;;25.98;47.31
34506;BME280;20748;42.632;23.198;2023-07-08T11:05:19;92405.47;;;26.54;46.94
34506;BME280;20748;42.632;23.198;2023-07-08T11:07:58;92400.53;;;26.42;48.07
34506;BME280;20748;42.632;23.198;2023-07-08T11:10:38;92403.72;;;26.00;47.79
34506;BME280;20748;42.632;23.198;2023-07-08T11:13:17;92404.06;;;26.03;46.25
34506;BME280;20748;42.632;23.198;2023-07-08T11:21:29;92391.44;;;26.29;46.77
34506;BME280;20748;42.632;23.198;2023-07-08T11:24:11;92396.47;;;25.90;47.21
34506;BME280;20748;42.632;23.198;2023-07-08T11:26:49;92395.56;;;26.40;46.72
34506;BME280;20748;42.632;23.198;2023-07-08T11:29:25;92393.59;;;26.63;43.29
34506;BME280;20748;42.632;23.198;2023-07-08T11:32:00;92389.03;;;26.56;44.59
34506;BME280;20748;42.632;23.198;2023-07-08T11:34:34;92387.75;;;26.79;42.37
34506;BME280;20748;42.632;23.198;2023-07-08T11:37:10;92396.81;;;27.07;42.15
34506;BME280;20748;42.632;23.198;2023-07-08T11:44:56;92398.78;;;27.48;40.34
34506;BME280;20748;42.632;23.198;2023-07-08T11:47:37;92392.72;;;27.41;41.73
34506;BME280;20748;42.632;23.198;2023-07-08T11:50:24;92392.28;;;27.50;41.89
34506;BME280;20748;42.632;23.198;2023-07-08T11:53:00;92387.56;;;27.65;41.60
34506;BME280;20748;42.632;23.198;2023-07-08T11:55:36;92392.84;;;27.72;45.31
34506;BME280;20748;42.632;23.198;2023-07-08T11:58:19;92401.94;;;27.32;42.42
34506;BME280;20748;42.632;23.198;2023-07-08T12:00:58;92394.63;;;27.40;41.94
34506;BME280;20748;42.632;23.198;2023-07-08T12:06:42;92388.31;;;27.65;43.28
34506;BME280;20748;42.632;23.198;2023-07-08T12:09:22;92384.13;;;27.11;40.72
34506;BME280;20748;42.632;23.198;2023-07-08T12:11:56;92394.66;;;27.37;40.41
34506;BME280;20748;42.632;23.198;2023-07-08T12:14:31;92393.47;;;27.41;40.55
34506;BME280;20748;42.632;23.198;2023-07-08T12:17:09;92382.19;;;27.15;41.42
34506;BME280;20748;42.632;23.198;2023-07-08T12:19:43;92392.97;;;27.08;43.56
34506;BME280;20748;42.632;23.198;2023-07-08T12:22:17;92389.16;;;27.05;43.84
34506;BME280;20748;42.632;23.198;2023-07-08T12:32:32;92386.22;;;26.81;43.31
34506;BME280;20748;42.632;23.198;2023-07-08T12:35:17;92388.72;;;26.39;41.75
34506;BME280;20748;42.632;23.198;2023-07-08T12:37:52;92396.44;;;26.12;44.25
34506;BME280;20748;42.632;23.198;2023-07-08T12:40:26;92387.72;;;25.79;43.70
34506;BME280;20748;42.632;23.198;2023-07-08T12:42:59;92391.16;;;25.76;47.76
34506;BME280;20748;42.632;23.198;2023-07-08T12:45:32;92380.13;;;25.59;45.81
34506;BME280;20748;42.632;23.198;2023-07-08T12:48:06;92386.59;;;25.69;45.62
34506;BME280;20748;42.632;23.198;2023-07-08T12:53:27;92384.31;;;25.49;45.71
34506;BME280;20748;42.632;23.198;2023-07-08T12:56:01;92377.44;;;25.52;44.76
34506;BME280;20748;42.632;23.198;2023-07-08T12:58:39;92386.56;;;25.87;49.08
34506;BME280;20748;42.632;23.198;2023-07-08T13:01:16;92386.19;;;25.92;47.67
34506;BME280;20748;42.632;23.198;2023-07-08T13:03:52;92378.59;;;25.62;48.01
34506;BME280;20748;42.632;23.198;2023-07-08T13:06:29;92390.78;;;25.81;46.58
34506;BME280;20748;42.632;23.198;2023-07-08T13:09:08;92393.47;;;25.59;46.41
34506;BME280;20748;42.632;23.198;2023-07-08T13:19:22;92387.78;;;25.53;46.75
34506;BME280;20748;42.632;23.198;2023-07-08T13:21:56;92389.28;;;25.54;46.74
34506;BME280;20748;42.632;23.198;2023-07-08T13:24:31;92383.94;;;25.47;50.41
34506;BME280;20748;42.632;23.198;2023-07-08T13:27:14;92384.31;;;25.24;48.55
34506;BME280;20748;42.632;23.198;2023-07-08T13:29:51;92390.81;;;25.15;47.76
34506;BME280;20748;42.632;23.198;2023-07-08T13:32:30;92382.03;;;25.15;47.77
34506;BME280;20748;42.632;23.198;2023-07-08T13:35:05;92376.31;;;25.16;45.69
34506;BME280;20748;42.632;23.198;2023-07-08T13:43:09;92387.72;;;25.46;50.51
34506;BME280;20748;42.632;23.198;2023-07-08T13:45:44;92374.41;;;25.31;50.60
34506;BME280;20748;42.632;23.198;2023-07-08T13:48:24;92374.03;;;25.29;48.25
34506;BME280;20748;42.632;23.198;2023-07-08T13:51:01;92366.38;;;25.42;50.13
34506;BME280;20748;42.632;23.198;2023-07-08T13:53:43;92372.88;;;25.41;49.97
34506;BME280;20748;42.632;23.198;2023-07-08T13:56:20;92367.53;;;25.41;51.11
34506;BME280;20748;42.632;23.198;2023-07-08T13:59:02;92369.03;;;25.17;52.53
34506;BME280;20748;42.632;23.198;2023-07-08T14:06:55;92373.19;;;24.74;50.94
34506;BME280;20748;42.632;23.198;2023-07-08T14:09:28;92369.44;;;24.86;51.65
34506;BME280;20748;42.632;23.198;2023-07-08T14:12:01;92374.75;;;24.90;49.90
34506;BME280;20748;42.632;23.198;2023-07-08T14:14:34;92377.84;;;25.03;50.48
34506;BME280;20748;42.632;23.198;2023-07-08T14:17:10;92374.38;;;24.91;50.12
34506;BME280;20748;42.632;23.198;2023-07-08T14:19:43;92369.44;;;24.90;51.27
34506;BME280;20748;42.632;23.198;2023-07-08T14:22:23;92366.38;;;24.95;53.70
34506;BME280;20748;42.632;23.198;2023-07-08T14:28:43;92371.75;;;25.20;49.71
34506;BME280;20748;42.632;23.198;2023-07-08T14:31:19;92366.41;;;25.28;51.94
34506;BME280;20748;42.632;23.198;2023-07-08T14:34:00;92372.84;;;25.23;53.66
34506;BME280;20748;42.632;23.198;2023-07-08T14:36:34;92378.56;;;25.07;51.34
34506;BME280;20748;42.632;23.198;2023-07-08T14:39:11;92372.50;;;25.10;50.74
34506;BME280;20748;42.632;23.198;2023-07-08T14:41:46;92378.22;;;25.05;50.21
34506;BME280;20748;42.632;23.198;2023-07-08T14:44:25;92366.69;;;24.75;49.84
34506;BME280;20748;42.632;23.198;2023-07-08T14:54:38;92373.16;;;24.71;52.08
34506;BME280;20748;42.632;23.198;2023-07-08T14:57:15;92370.09;;;24.58;51.30
34506;BME280;20748;42.632;23.198;2023-07-08T14:59:48;92372.34;;;24.41;52.89
34506;BME280;20748;42.632;23.198;2023-07-08T15:02:23;92383.28;;;24.18;54.51
34506;BME280;20748;42.632;23.198;2023-07-08T15:04:56;92377.44;;;23.90;53.23
34506;BME280;20748;42.632;23.198;2023-07-08T15:07:28;92384.06;;;24.15;53.79
34506;BME280;20748;42.632;23.198;2023-07-08T15:10:02;92381.41;;;24.22;53.75
34506;BME280;20748;42.632;23.198;2023-07-08T15:16:20;92384.41;;;24.09;53.44
34506;BME280;20748;42.632;23.198;2023-07-08T15:18:52;92389.75;;;24.09;51.16
34506;BME280;20748;42.632;23.198;2023-07-08T15:21:25;92389.97;;;23.86;55.56
34506;BME280;20748;42.632;23.198;2023-07-08T15:23:57;92386.53;;;23.85;54.22
34506;BME280;20748;42.632;23.198;2023-07-08T15:26:30;92388.53;;;23.99;53.07
34506;BME280;20748;42.632;23.198;2023-07-08T15:29:02;92392.78;;;24.11;55.53
34506;BME280;20748;42.632;23.198;2023-07-08T15:31:35;92394.72;;;24.15;54.52
34506;BME280;20748;42.632;23.198;2023-07-08T15:39:18;92389.75;;;24.17;54.86
34506;BME280;20748;42.632;23.198;2023-07-08T15:41:51;92388.97;;;24.12;53.58
34506;BME280;20748;42.632;23.198;2023-07-08T15:44:24;92403.09;;;24.20;55.03
34506;BME280;20748;42.632;23.198;2023-07-08T15:46:56;92395.75;;;24.03;53.68
34506;BME280;20748;42.632;23.198;2023-07-08T15:49:29;92394.28;;;24.09;52.45
34506;BME280;20748;42.632;23.198;2023-07-08T15:52:02;92400.78;;;24.11;53.16
34506;BME280;20748;42.632;23.198;2023-07-08T15:54:37;92403.78;;;24.06;51.02
34506;BME280;20748;42.632;23.198;2023-07-08T16:03:47;92398.00;;;23.93;52.80
34506;BME280;20748;42.632;23.198;2023-07-08T16:06:20;92410.72;;;23.58;50.35
34506;BME280;20748;42.632;23.198;2023-07-08T16:08:53;92409.53;;;23.49;51.00
34506;BME280;20748;42.632;23.198;2023-07-08T16:11:29;92409.56;;;23.56;54.28
34506;BME280;20748;42.632;23.198;2023-07-08T16:14:02;92409.53;;;23.49;53.05
34506;BME280;20748;42.632;23.198;2023-07-08T16:16:34;92410.69;;;23.55;51.77
34506;BME280;20748;42.632;23.198;2023-07-08T16:19:09;92406.50;;;23.54;53.61
34506;BME280;20748;42.632;23.198;2023-07-08T16:21:42;92412.50;;;23.43;52.61
34506;BME280;20748;42.632;23.198;2023-07-08T16:24:34;92406.09;;;23.52;52.93
34506;BME280;20748;42.632;23.198;2023-07-08T16:27:08;92409.53;;;23.49;52.97
34506;BME280;20748;42.632;23.198;2023-07-08T16:29:45;92398.19;;;23.59;54.89
34506;BME280;20748;42.632;23.198;2023-07-08T16:32:17;92413.34;;;23.51;54.21
34506;BME280;20748;42.632;23.198;2023-07-08T16:34:50;92407.19;;;23.43;54.80
34506;BME280;20748;42.632;23.198;2023-07-08T16:37:22;92406.03;;;23.41;52.56
34506;BME280;20748;42.632;23.198;2023-07-08T16:39:55;92404.56;;;23.05;52.04
34506;BME280;20748;42.632;23.198;2023-07-08T16:49:07;92412.34;;;22.84;51.65
34506;BME280;20748;42.632;23.198;2023-07-08T16:51:40;92412.63;;;22.75;53.33
34506;BME280;20748;42.632;23.198;2023-07-08T16:54:14;92407.44;;;22.86;52.76
34506;BME280;20748;42.632;23.198;2023-07-08T16:56:47;92402.16;;;22.89;52.71
34506;BME280;20748;42.632;23.198;2023-07-08T16:59:19;92406.31;;;22.87;52.36
34506;BME280;20748;42.632;23.198;2023-07-08T17:01:52;92408.88;;;22.76;52.88
34506;BME280;20748;42.632;23.198;2023-07-08T17:04:25;92409.56;;;22.69;55.73
34506;BME280;20748;42.632;23.198;2023-07-08T17:11:08;92403.22;;;22.81;53.32
34506;BME280;20748;42.632;23.198;2023-07-08T17:13:41;92411.28;;;22.88;53.68
34506;BME280;20748;42.632;23.198;2023-07-08T17:16:16;92411.22;;;22.81;52.97
34506;BME280;20748;42.632;23.198;2023-07-08T17:18:52;92413.38;;;22.72;55.89
34506;BME280;20748;42.632;23.198;2023-07-08T17:21:26;92416.44;;;22.74;55.33